sensor_id;sensor_type;location;lat;lon;timestamp;temperature;humidity
3942;DHT22;1985;48.592;8.850;2022-09-20T00:00:15;10.00;99.90
3942;DHT22;1985;48.592;8.850;2022-09-20T00:02:41;9.90;99.90
3942;DHT22;1985;48.592;8.850;2022-09-20T00:05:07;9.90;99.90
3942;DHT22;1985;48.592;8.850;2022-09-20T00:07:33;9.90;99.90
3942;DHT22;1985;48.592;8.850;2022-09-20T00:09:59;9.90;99.90
3942;DHT22;1985;48.592;8.850;2022-09-20T00:12:25;9.90;99.90
3942;DHT22;1985;48.592;8.850;2022-09-20T00:14:51;9.80;99.90
3942;DHT22;1985;48.592;8.850;2022-09-20T00:17:17;9.70;99.90
3942;DHT22;1985;48.592;8.850;2022-09-20T00:19:42;9.70;99.90
3942;DHT22;1985;48.592;8.850;2022-09-20T00:22:08;9.70;99.90
3942;DHT22;1985;48.592;8.850;2022-09-20T00:24:33;9.70;99.90
3942;DHT22;1985;48.592;8.850;2022-09-20T00:27:01;9.70;99.90
3942;DHT22;1985;48.592;8.850;2022-09-20T00:29:27;9.60;99.90
3942;DHT22;1985;48.592;8.850;2022-09-20T00:31:53;9.60;99.90
3942;DHT22;1985;48.592;8.850;2022-09-20T00:34:18;9.50;99.90
3942;DHT22;1985;48.592;8.850;2022-09-20T00:37:02;9.60;99.90
3942;DHT22;1985;48.592;8.850;2022-09-20T00:39:28;9.60;99.90
3942;DHT22;1985;48.592;8.850;2022-09-20T00:41:54;9.60;99.90
3942;DHT22;1985;48.592;8.850;2022-09-20T00:52:55;9.40;99.90
3942;DHT22;1985;48.592;8.850;2022-09-20T00:55:22;9.40;99.90
3942;DHT22;1985;48.592;8.850;2022-09-20T00:57:49;9.50;99.90
3942;DHT22;1985;48.592;8.850;2022-09-20T01:00:15;9.40;99.90
3942;DHT22;1985;48.592;8.850;2022-09-20T01:02:45;9.40;99.90
3942;DHT22;1985;48.592;8.850;2022-09-20T01:05:13;9.30;99.90
3942;DHT22;1985;48.592;8.850;2022-09-20T01:07:41;9.20;99.90
3942;DHT22;1985;48.592;8.850;2022-09-20T01:10:07;9.20;99.90
3942;DHT22;1985;48.592;8.850;2022-09-20T01:12:33;9.30;99.90
3942;DHT22;1985;48.592;8.850;2022-09-20T01:15:02;9.30;99.90
3942;DHT22;1985;48.592;8.850;2022-09-20T01:17:32;9.40;99.90
3942;DHT22;1985;48.592;8.850;2022-09-20T01:22:58;9.40;99.90
3942;DHT22;1985;48.592;8.850;2022-09-20T01:28:12;9.20;99.90
3942;DHT22;1985;48.592;8.850;2022-09-20T01:31:24;9.20;99.90
3942;DHT22;1985;48.592;8.850;2022-09-20T01:36:04;9.30;99.90
3942;DHT22;1985;48.592;8.850;2022-09-20T01:41:22;9.30;99.90
3942;DHT22;1985;48.592;8.850;2022-09-20T01:43:56;9.30;99.90
3942;DHT22;1985;48.592;8.850;2022-09-20T01:46:35;9.30;99.90
3942;DHT22;1985;48.592;8.850;2022-09-20T02:11:13;9.40;99.90
3942;DHT22;1985;48.592;8.850;2022-09-20T02:24:57;9.50;99.90
3942;DHT22;1985;48.592;8.850;2022-09-20T02:30:18;9.40;99.90
3942;DHT22;1985;48.592;8.850;2022-09-20T02:43:55;9.20;99.90
3942;DHT22;1985;48.592;8.850;2022-09-20T02:46:47;9.10;99.90
3942;DHT22;1985;48.592;8.850;2022-09-20T02:52:03;9.00;99.90
3942;DHT22;1985;48.592;8.850;2022-09-20T02:54:43;8.90;99.90
3942;DHT22;1985;48.592;8.850;2022-09-20T03:00:06;8.60;99.90
3942;DHT22;1985;48.592;8.850;2022-09-20T03:03:09;8.70;99.90
3942;DHT22;1985;48.592;8.850;2022-09-20T03:11:47;9.10;99.90
3942;DHT22;1985;48.592;8.850;2022-09-20T03:14:18;9.10;99.90
3942;DHT22;1985;48.592;8.850;2022-09-20T03:23:00;9.00;99.90
3942;DHT22;1985;48.592;8.850;2022-09-20T03:25:56;9.00;99.90
3942;DHT22;1985;48.592;8.850;2022-09-20T03:34:48;9.00;99.90
3942;DHT22;1985;48.592;8.850;2022-09-20T03:42:23;9.00;99.90
3942;DHT22;1985;48.592;8.850;2022-09-20T04:04:48;8.70;99.90
3942;DHT22;1985;48.592;8.850;2022-09-20T04:13:43;8.90;99.90
3942;DHT22;1985;48.592;8.850;2022-09-20T04:16:32;9.00;99.90
3942;DHT22;1985;48.592;8.850;2022-09-20T04:19:13;9.00;99.90
3942;DHT22;1985;48.592;8.850;2022-09-20T04:21:57;9.10;99.90
3942;DHT22;1985;48.592;8.850;2022-09-20T04:35:46;9.40;99.90
3942;DHT22;1985;48.592;8.850;2022-09-20T04:38:35;9.50;99.90
3942;DHT22;1985;48.592;8.850;2022-09-20T04:41:32;9.50;99.90
3942;DHT22;1985;48.592;8.850;2022-09-20T04:54:53;9.60;99.90
3942;DHT22;1985;48.592;8.850;2022-09-20T05:02:54;9.30;99.90
3942;DHT22;1985;48.592;8.850;2022-09-20T05:05:47;9.30;99.90
3942;DHT22;1985;48.592;8.850;2022-09-20T05:08:43;9.20;99.90
3942;DHT22;1985;48.592;8.850;2022-09-20T05:25:42;9.10;99.90
3942;DHT22;1985;48.592;8.850;2022-09-20T05:28:32;9.20;99.90
3942;DHT22;1985;48.592;8.850;2022-09-20T05:33:55;8.90;99.90
3942;DHT22;1985;48.592;8.850;2022-09-20T05:42:00;8.60;99.90
3942;DHT22;1985;48.592;8.850;2022-09-20T05:52:55;8.30;99.90
3942;DHT22;1985;48.592;8.850;2022-09-20T05:55:59;8.30;99.90
3942;DHT22;1985;48.592;8.850;2022-09-20T06:01:13;8.10;99.90
3942;DHT22;1985;48.592;8.850;2022-09-20T06:03:46;8.10;99.90
3942;DHT22;1985;48.592;8.850;2022-09-20T06:06:28;8.00;99.90
3942;DHT22;1985;48.592;8.850;2022-09-20T06:11:46;8.10;99.90
3942;DHT22;1985;48.592;8.850;2022-09-20T06:17:26;8.20;99.90
3942;DHT22;1985;48.592;8.850;2022-09-20T06:27:44;8.70;99.90
3942;DHT22;1985;48.592;8.850;2022-09-20T06:30:21;8.70;99.90
3942;DHT22;1985;48.592;8.850;2022-09-20T06:40:57;8.60;99.90
3942;DHT22;1985;48.592;8.850;2022-09-20T06:43:42;8.70;99.90
3942;DHT22;1985;48.592;8.850;2022-09-20T06:46:07;8.80;99.90
3942;DHT22;1985;48.592;8.850;2022-09-20T06:48:33;8.80;99.90
3942;DHT22;1985;48.592;8.850;2022-09-20T06:51:00;8.70;99.90
3942;DHT22;1985;48.592;8.850;2022-09-20T06:53:31;8.80;99.90
3942;DHT22;1985;48.592;8.850;2022-09-20T06:55:58;8.90;99.90
3942;DHT22;1985;48.592;8.850;2022-09-20T06:58:24;9.00;99.90
3942;DHT22;1985;48.592;8.850;2022-09-20T07:00:51;9.10;99.90
3942;DHT22;1985;48.592;8.850;2022-09-20T07:03:17;9.30;99.90
3942;DHT22;1985;48.592;8.850;2022-09-20T07:05:44;9.50;99.90
3942;DHT22;1985;48.592;8.850;2022-09-20T07:08:10;9.60;99.90
3942;DHT22;1985;48.592;8.850;2022-09-20T07:10:37;9.60;99.90
3942;DHT22;1985;48.592;8.850;2022-09-20T07:13:03;9.60;99.90
3942;DHT22;1985;48.592;8.850;2022-09-20T07:15:31;9.50;99.90
3942;DHT22;1985;48.592;8.850;2022-09-20T07:17:57;9.60;99.90
3942;DHT22;1985;48.592;8.850;2022-09-20T07:20:24;9.60;99.90
3942;DHT22;1985;48.592;8.850;2022-09-20T07:22:49;9.50;99.90
3942;DHT22;1985;48.592;8.850;2022-09-20T07:25:16;9.60;99.90
3942;DHT22;1985;48.592;8.850;2022-09-20T07:27:43;9.70;99.90
3942;DHT22;1985;48.592;8.850;2022-09-20T07:30:12;9.70;99.90
3942;DHT22;1985;48.592;8.850;2022-09-20T07:32:38;9.70;99.90
3942;DHT22;1985;48.592;8.850;2022-09-20T07:35:07;9.80;99.90
3942;DHT22;1985;48.592;8.850;2022-09-20T07:37:32;9.80;99.90
3942;DHT22;1985;48.592;8.850;2022-09-20T07:39:58;9.80;99.90
3942;DHT22;1985;48.592;8.850;2022-09-20T07:42:24;9.80;99.90
3942;DHT22;1985;48.592;8.850;2022-09-20T07:44:49;9.80;99.90
3942;DHT22;1985;48.592;8.850;2022-09-20T07:47:17;9.70;99.90
3942;DHT22;1985;48.592;8.850;2022-09-20T07:49:43;9.70;99.90
3942;DHT22;1985;48.592;8.850;2022-09-20T07:52:09;9.90;99.90
3942;DHT22;1985;48.592;8.850;2022-09-20T07:54:35;10.00;99.90
3942;DHT22;1985;48.592;8.850;2022-09-20T07:57:01;10.10;99.90
3942;DHT22;1985;48.592;8.850;2022-09-20T07:59:27;10.20;99.90
3942;DHT22;1985;48.592;8.850;2022-09-20T08:01:53;10.30;99.90
3942;DHT22;1985;48.592;8.850;2022-09-20T08:04:18;10.50;99.90
3942;DHT22;1985;48.592;8.850;2022-09-20T08:06:45;10.60;99.90
3942;DHT22;1985;48.592;8.850;2022-09-20T08:09:12;10.80;99.90
3942;DHT22;1985;48.592;8.850;2022-09-20T08:11:38;10.90;99.90
3942;DHT22;1985;48.592;8.850;2022-09-20T08:14:05;11.10;99.90
3942;DHT22;1985;48.592;8.850;2022-09-20T08:16:31;11.20;99.90
3942;DHT22;1985;48.592;8.850;2022-09-20T08:19:01;11.20;99.90
3942;DHT22;1985;48.592;8.850;2022-09-20T08:21:32;11.40;99.90
3942;DHT22;1985;48.592;8.850;2022-09-20T08:23:59;11.50;99.90
3942;DHT22;1985;48.592;8.850;2022-09-20T08:26:26;11.70;99.90
3942;DHT22;1985;48.592;8.850;2022-09-20T08:28:54;11.90;99.90
3942;DHT22;1985;48.592;8.850;2022-09-20T08:31:21;12.00;99.90
3942;DHT22;1985;48.592;8.850;2022-09-20T08:33:49;12.20;99.90
3942;DHT22;1985;48.592;8.850;2022-09-20T08:36:21;12.30;99.90
3942;DHT22;1985;48.592;8.850;2022-09-20T08:38:47;12.40;99.90
3942;DHT22;1985;48.592;8.850;2022-09-20T08:41:39;12.70;99.90
3942;DHT22;1985;48.592;8.850;2022-09-20T08:44:23;12.60;99.90
3942;DHT22;1985;48.592;8.850;2022-09-20T08:47:38;12.70;99.90
3942;DHT22;1985;48.592;8.850;2022-09-20T08:50:06;13.00;99.90
3942;DHT22;1985;48.592;8.850;2022-09-20T08:52:37;13.10;99.90
3942;DHT22;1985;48.592;8.850;2022-09-20T08:57:51;13.10;99.90
3942;DHT22;1985;48.592;8.850;2022-09-20T09:00:24;13.00;99.90
3942;DHT22;1985;48.592;8.850;2022-09-20T09:02:55;12.90;99.90
3942;DHT22;1985;48.592;8.850;2022-09-20T09:07:53;13.00;99.90
3942;DHT22;1985;48.592;8.850;2022-09-20T09:10:19;13.10;99.90
3942;DHT22;1985;48.592;8.850;2022-09-20T09:12:45;13.40;99.90
3942;DHT22;1985;48.592;8.850;2022-09-20T09:15:23;13.60;99.90
3942;DHT22;1985;48.592;8.850;2022-09-20T09:17:52;13.90;99.90
3942;DHT22;1985;48.592;8.850;2022-09-20T09:20:21;14.10;99.90
3942;DHT22;1985;48.592;8.850;2022-09-20T09:23:09;14.30;99.90
3942;DHT22;1985;48.592;8.850;2022-09-20T09:25:38;14.50;99.90
3942;DHT22;1985;48.592;8.850;2022-09-20T09:30:45;14.80;99.90
3942;DHT22;1985;48.592;8.850;2022-09-20T09:33:32;15.10;99.90
3942;DHT22;1985;48.592;8.850;2022-09-20T09:38:27;15.10;98.10
3942;DHT22;1985;48.592;8.850;2022-09-20T09:40:58;15.40;97.90
3942;DHT22;1985;48.592;8.850;2022-09-20T09:43:27;15.60;97.00
3942;DHT22;1985;48.592;8.850;2022-09-20T09:45:55;15.70;96.70
3942;DHT22;1985;48.592;8.850;2022-09-20T09:48:29;15.60;93.30
3942;DHT22;1985;48.592;8.850;2022-09-20T09:51:15;15.10;92.40
3942;DHT22;1985;48.592;8.850;2022-09-20T09:53:42;15.00;94.90
3942;DHT22;1985;48.592;8.850;2022-09-20T10:01:42;14.80;95.60
3942;DHT22;1985;48.592;8.850;2022-09-20T10:04:20;14.80;96.40
3942;DHT22;1985;48.592;8.850;2022-09-20T10:12:17;14.90;96.10
3942;DHT22;1985;48.592;8.850;2022-09-20T10:30:49;16.30;90.70
3942;DHT22;1985;48.592;8.850;2022-09-20T10:38:51;16.10;87.20
3942;DHT22;1985;48.592;8.850;2022-09-20T10:44:48;16.10;88.40
3942;DHT22;1985;48.592;8.850;2022-09-20T10:47:18;16.10;89.80
3942;DHT22;1985;48.592;8.850;2022-09-20T10:49:51;16.00;87.90
3942;DHT22;1985;48.592;8.850;2022-09-20T10:55:19;16.10;89.50
3942;DHT22;1985;48.592;8.850;2022-09-20T11:08:14;16.20;87.10
3942;DHT22;1985;48.592;8.850;2022-09-20T11:15:45;15.70;88.80
3942;DHT22;1985;48.592;8.850;2022-09-20T11:20:53;15.70;90.20
3942;DHT22;1985;48.592;8.850;2022-09-20T11:26:10;15.50;91.10
3942;DHT22;1985;48.592;8.850;2022-09-20T11:28:45;15.80;90.90
3942;DHT22;1985;48.592;8.850;2022-09-20T11:34:04;16.50;90.50
3942;DHT22;1985;48.592;8.850;2022-09-20T11:39:41;16.80;86.00
3942;DHT22;1985;48.592;8.850;2022-09-20T11:42:17;16.60;85.00
3942;DHT22;1985;48.592;8.850;2022-09-20T11:44:45;16.50;85.00
3942;DHT22;1985;48.592;8.850;2022-09-20T11:47:26;16.40;84.00
3942;DHT22;1985;48.592;8.850;2022-09-20T11:50:06;16.20;84.60
3942;DHT22;1985;48.592;8.850;2022-09-20T11:58:45;16.20;84.10
3942;DHT22;1985;48.592;8.850;2022-09-20T12:01:13;16.50;83.90
3942;DHT22;1985;48.592;8.850;2022-09-20T12:03:41;16.70;80.60
3942;DHT22;1985;48.592;8.850;2022-09-20T12:06:32;16.70;78.80
3942;DHT22;1985;48.592;8.850;2022-09-20T12:09:02;17.00;78.40
3942;DHT22;1985;48.592;8.850;2022-09-20T12:11:33;17.30;77.00
3942;DHT22;1985;48.592;8.850;2022-09-20T12:14:23;17.50;75.60
3942;DHT22;1985;48.592;8.850;2022-09-20T12:16:49;17.60;76.60
3942;DHT22;1985;48.592;8.850;2022-09-20T12:24:27;17.70;77.80
3942;DHT22;1985;48.592;8.850;2022-09-20T12:27:01;17.60;73.20
3942;DHT22;1985;48.592;8.850;2022-09-20T12:32:00;17.30;73.90
3942;DHT22;1985;48.592;8.850;2022-09-20T12:41:56;16.70;73.60
3942;DHT22;1985;48.592;8.850;2022-09-20T12:44:29;16.40;75.40
3942;DHT22;1985;48.592;8.850;2022-09-20T12:47:01;16.30;77.50
3942;DHT22;1985;48.592;8.850;2022-09-20T13:03:32;16.60;76.80
3942;DHT22;1985;48.592;8.850;2022-09-20T13:08:55;16.60;74.50
3942;DHT22;1985;48.592;8.850;2022-09-20T13:14:22;16.60;76.20
3942;DHT22;1985;48.592;8.850;2022-09-20T13:17:33;16.60;74.80
3942;DHT22;1985;48.592;8.850;2022-09-20T13:19:54;16.60;74.40
3942;DHT22;1985;48.592;8.850;2022-09-20T13:22:22;16.60;73.90
3942;DHT22;1985;48.592;8.850;2022-09-20T13:24:58;16.50;75.90
3942;DHT22;1985;48.592;8.850;2022-09-20T13:30:26;16.70;75.90
3942;DHT22;1985;48.592;8.850;2022-09-20T13:32:54;16.70;75.10
3942;DHT22;1985;48.592;8.850;2022-09-20T13:35:20;16.80;75.10
3942;DHT22;1985;48.592;8.850;2022-09-20T13:38:04;16.90;74.50
3942;DHT22;1985;48.592;8.850;2022-09-20T13:40:45;16.80;71.10
3942;DHT22;1985;48.592;8.850;2022-09-20T13:43:25;17.00;74.90
3942;DHT22;1985;48.592;8.850;2022-09-20T13:46:13;17.40;75.90
3942;DHT22;1985;48.592;8.850;2022-09-20T13:48:46;17.80;75.60
3942;DHT22;1985;48.592;8.850;2022-09-20T13:51:23;18.00;72.20
3942;DHT22;1985;48.592;8.850;2022-09-20T13:53:49;17.50;67.30
3942;DHT22;1985;48.592;8.850;2022-09-20T13:56:24;17.40;68.00
3942;DHT22;1985;48.592;8.850;2022-09-20T13:58:51;17.20;68.80
3942;DHT22;1985;48.592;8.850;2022-09-20T14:01:47;17.00;69.70
3942;DHT22;1985;48.592;8.850;2022-09-20T14:04:18;17.00;70.20
3942;DHT22;1985;48.592;8.850;2022-09-20T14:06:46;17.00;72.60
3942;DHT22;1985;48.592;8.850;2022-09-20T14:09:41;16.80;70.90
3942;DHT22;1985;48.592;8.850;2022-09-20T14:12:07;16.50;71.00
3942;DHT22;1985;48.592;8.850;2022-09-20T14:14:34;16.20;71.90
3942;DHT22;1985;48.592;8.850;2022-09-20T14:17:03;16.20;74.70
3942;DHT22;1985;48.592;8.850;2022-09-20T14:19:31;16.30;74.60
3942;DHT22;1985;48.592;8.850;2022-09-20T14:22:02;16.30;74.60
3942;DHT22;1985;48.592;8.850;2022-09-20T14:24:30;16.40;74.90
3942;DHT22;1985;48.592;8.850;2022-09-20T14:27:19;16.50;74.60
3942;DHT22;1985;48.592;8.850;2022-09-20T14:29:54;16.50;74.00
3942;DHT22;1985;48.592;8.850;2022-09-20T14:32:23;16.30;75.00
3942;DHT22;1985;48.592;8.850;2022-09-20T14:37:22;16.20;75.50
3942;DHT22;1985;48.592;8.850;2022-09-20T14:39:55;16.20;75.50
3942;DHT22;1985;48.592;8.850;2022-09-20T14:42:41;16.20;75.20
3942;DHT22;1985;48.592;8.850;2022-09-20T14:45:20;16.40;75.70
3942;DHT22;1985;48.592;8.850;2022-09-20T14:47:58;16.50;75.70
3942;DHT22;1985;48.592;8.850;2022-09-20T14:50:34;16.40;74.10
3942;DHT22;1985;48.592;8.850;2022-09-20T14:55:38;16.30;76.40
3942;DHT22;1985;48.592;8.850;2022-09-20T14:58:12;16.50;77.70
3942;DHT22;1985;48.592;8.850;2022-09-20T15:01:19;16.80;75.50
3942;DHT22;1985;48.592;8.850;2022-09-20T15:03:47;17.20;75.10
3942;DHT22;1985;48.592;8.850;2022-09-20T15:06:13;17.50;74.20
3942;DHT22;1985;48.592;8.850;2022-09-20T15:08:39;17.60;74.20
3942;DHT22;1985;48.592;8.850;2022-09-20T15:11:05;17.80;73.80
3942;DHT22;1985;48.592;8.850;2022-09-20T15:13:31;17.60;72.20
3942;DHT22;1985;48.592;8.850;2022-09-20T15:15:57;17.40;73.00
3942;DHT22;1985;48.592;8.850;2022-09-20T15:18:29;17.40;74.40
3942;DHT22;1985;48.592;8.850;2022-09-20T15:20:56;17.40;74.90
3942;DHT22;1985;48.592;8.850;2022-09-20T15:23:21;17.50;75.30
3942;DHT22;1985;48.592;8.850;2022-09-20T15:25:51;17.50;75.90
3942;DHT22;1985;48.592;8.850;2022-09-20T15:28:18;17.30;76.00
3942;DHT22;1985;48.592;8.850;2022-09-20T15:30:44;17.20;76.90
3942;DHT22;1985;48.592;8.850;2022-09-20T15:33:10;17.00;76.70
3942;DHT22;1985;48.592;8.850;2022-09-20T15:35:38;16.80;77.30
3942;DHT22;1985;48.592;8.850;2022-09-20T15:38:04;16.70;78.10
3942;DHT22;1985;48.592;8.850;2022-09-20T15:40:33;16.70;78.40
3942;DHT22;1985;48.592;8.850;2022-09-20T15:42:59;16.70;77.60
3942;DHT22;1985;48.592;8.850;2022-09-20T15:45:25;16.60;77.10
3942;DHT22;1985;48.592;8.850;2022-09-20T15:47:53;16.60;77.90
3942;DHT22;1985;48.592;8.850;2022-09-20T15:50:22;16.60;78.00
3942;DHT22;1985;48.592;8.850;2022-09-20T15:52:49;16.60;77.40
3942;DHT22;1985;48.592;8.850;2022-09-20T15:55:18;16.50;77.30
3942;DHT22;1985;48.592;8.850;2022-09-20T15:57:44;16.20;77.40
3942;DHT22;1985;48.592;8.850;2022-09-20T16:00:10;16.20;78.10
3942;DHT22;1985;48.592;8.850;2022-09-20T16:02:36;16.10;78.60
3942;DHT22;1985;48.592;8.850;2022-09-20T16:05:02;16.00;79.50
3942;DHT22;1985;48.592;8.850;2022-09-20T16:07:28;15.90;80.00
3942;DHT22;1985;48.592;8.850;2022-09-20T16:09:54;15.80;80.40
3942;DHT22;1985;48.592;8.850;2022-09-20T16:12:22;15.70;79.60
3942;DHT22;1985;48.592;8.850;2022-09-20T16:14:48;15.60;77.40
3942;DHT22;1985;48.592;8.850;2022-09-20T16:17:14;15.60;77.10
3942;DHT22;1985;48.592;8.850;2022-09-20T16:19:40;15.60;75.50
3942;DHT22;1985;48.592;8.850;2022-09-20T16:22:07;15.50;75.90
3942;DHT22;1985;48.592;8.850;2022-09-20T16:24:34;15.50;75.80
3942;DHT22;1985;48.592;8.850;2022-09-20T16:27:02;15.40;76.60
3942;DHT22;1985;48.592;8.850;2022-09-20T16:29:29;15.20;77.10
3942;DHT22;1985;48.592;8.850;2022-09-20T16:31:55;15.10;78.00
3942;DHT22;1985;48.592;8.850;2022-09-20T16:39:27;14.80;79.90
3942;DHT22;1985;48.592;8.850;2022-09-20T16:41:55;14.80;81.00
3942;DHT22;1985;48.592;8.850;2022-09-20T16:44:22;14.80;81.60
3942;DHT22;1985;48.592;8.850;2022-09-20T16:46:48;14.80;82.60
3942;DHT22;1985;48.592;8.850;2022-09-20T16:49:14;14.80;82.60
3942;DHT22;1985;48.592;8.850;2022-09-20T16:51:42;14.70;83.80
3942;DHT22;1985;48.592;8.850;2022-09-20T16:54:10;14.60;84.50
3942;DHT22;1985;48.592;8.850;2022-09-20T16:56:47;14.40;85.30
3942;DHT22;1985;48.592;8.850;2022-09-20T16:59:14;14.50;85.40
3942;DHT22;1985;48.592;8.850;2022-09-20T17:01:41;14.50;86.20
3942;DHT22;1985;48.592;8.850;2022-09-20T17:04:07;14.50;86.50
3942;DHT22;1985;48.592;8.850;2022-09-20T17:06:35;14.50;86.50
3942;DHT22;1985;48.592;8.850;2022-09-20T17:09:03;14.50;86.80
3942;DHT22;1985;48.592;8.850;2022-09-20T17:11:32;14.40;87.50
3942;DHT22;1985;48.592;8.850;2022-09-20T17:13:58;14.40;88.30
3942;DHT22;1985;48.592;8.850;2022-09-20T17:16:25;14.40;88.90
3942;DHT22;1985;48.592;8.850;2022-09-20T17:18:57;14.40;89.50
3942;DHT22;1985;48.592;8.850;2022-09-20T17:21:23;14.40;90.10
3942;DHT22;1985;48.592;8.850;2022-09-20T17:23:51;14.30;90.20
3942;DHT22;1985;48.592;8.850;2022-09-20T17:26:26;14.30;90.60
3942;DHT22;1985;48.592;8.850;2022-09-20T17:28:54;14.30;91.00
3942;DHT22;1985;48.592;8.850;2022-09-20T17:31:26;14.30;91.10
3942;DHT22;1985;48.592;8.850;2022-09-20T17:34:02;14.30;90.80
3942;DHT22;1985;48.592;8.850;2022-09-20T17:36:49;14.30;91.20
3942;DHT22;1985;48.592;8.850;2022-09-20T17:39:15;14.40;91.30
3942;DHT22;1985;48.592;8.850;2022-09-20T17:41:43;14.30;91.70
3942;DHT22;1985;48.592;8.850;2022-09-20T17:44:09;14.20;91.90
3942;DHT22;1985;48.592;8.850;2022-09-20T17:46:40;14.20;92.50
3942;DHT22;1985;48.592;8.850;2022-09-20T17:49:08;14.20;92.80
3942;DHT22;1985;48.592;8.850;2022-09-20T17:51:35;14.10;92.80
3942;DHT22;1985;48.592;8.850;2022-09-20T17:54:01;14.20;92.60
3942;DHT22;1985;48.592;8.850;2022-09-20T17:56:27;14.10;93.10
3942;DHT22;1985;48.592;8.850;2022-09-20T17:59:02;14.10;92.80
3942;DHT22;1985;48.592;8.850;2022-09-20T18:01:30;14.10;93.40
3942;DHT22;1985;48.592;8.850;2022-09-20T18:03:58;14.10;94.10
3942;DHT22;1985;48.592;8.850;2022-09-20T18:06:29;14.10;94.10
3942;DHT22;1985;48.592;8.850;2022-09-20T18:11:27;14.10;94.90
3942;DHT22;1985;48.592;8.850;2022-09-20T18:13:53;14.10;94.90
3942;DHT22;1985;48.592;8.850;2022-09-20T18:16:19;14.10;94.70
3942;DHT22;1985;48.592;8.850;2022-09-20T18:18:45;14.10;94.70
3942;DHT22;1985;48.592;8.850;2022-09-20T18:21:19;14.00;94.80
3942;DHT22;1985;48.592;8.850;2022-09-20T18:23:46;14.00;94.90
3942;DHT22;1985;48.592;8.850;2022-09-20T18:26:14;14.00;94.80
3942;DHT22;1985;48.592;8.850;2022-09-20T18:29:02;14.00;94.90
3942;DHT22;1985;48.592;8.850;2022-09-20T18:34:12;13.90;95.50
3942;DHT22;1985;48.592;8.850;2022-09-20T18:36:40;13.90;96.00
3942;DHT22;1985;48.592;8.850;2022-09-20T18:39:06;13.90;96.10
3942;DHT22;1985;48.592;8.850;2022-09-20T18:41:34;13.90;96.10
3942;DHT22;1985;48.592;8.850;2022-09-20T18:44:02;13.90;96.30
3942;DHT22;1985;48.592;8.850;2022-09-20T18:46:29;14.00;96.40
3942;DHT22;1985;48.592;8.850;2022-09-20T18:49:00;13.90;96.30
3942;DHT22;1985;48.592;8.850;2022-09-20T18:51:29;14.00;96.80
3942;DHT22;1985;48.592;8.850;2022-09-20T18:53:56;14.00;97.00
3942;DHT22;1985;48.592;8.850;2022-09-20T18:58:55;13.80;97.60
3942;DHT22;1985;48.592;8.850;2022-09-20T19:12:22;13.80;99.00
3942;DHT22;1985;48.592;8.850;2022-09-20T19:15:00;13.80;98.90
3942;DHT22;1985;48.592;8.850;2022-09-20T19:28:32;13.70;99.10
3942;DHT22;1985;48.592;8.850;2022-09-20T19:30:58;13.70;99.30
3942;DHT22;1985;48.592;8.850;2022-09-20T19:33:23;13.70;99.40
3942;DHT22;1985;48.592;8.850;2022-09-20T19:35:50;13.80;99.70
3942;DHT22;1985;48.592;8.850;2022-09-20T19:38:25;13.70;99.30
3942;DHT22;1985;48.592;8.850;2022-09-20T19:43:47;13.60;99.70
3942;DHT22;1985;48.592;8.850;2022-09-20T19:51:48;13.70;99.70
3942;DHT22;1985;48.592;8.850;2022-09-20T19:54:14;13.70;99.70
3942;DHT22;1985;48.592;8.850;2022-09-20T19:56:53;13.60;99.90
3942;DHT22;1985;48.592;8.850;2022-09-20T19:59:24;13.60;99.90
3942;DHT22;1985;48.592;8.850;2022-09-20T20:01:51;13.50;99.90
3942;DHT22;1985;48.592;8.850;2022-09-20T20:04:18;13.50;99.90
3942;DHT22;1985;48.592;8.850;2022-09-20T20:09:48;13.40;99.90
3942;DHT22;1985;48.592;8.850;2022-09-20T20:12:22;13.50;99.90
3942;DHT22;1985;48.592;8.850;2022-09-20T20:20:38;13.50;99.90
3942;DHT22;1985;48.592;8.850;2022-09-20T20:28:15;13.40;99.90
3942;DHT22;1985;48.592;8.850;2022-09-20T20:30:40;13.40;99.90
3942;DHT22;1985;48.592;8.850;2022-09-20T20:33:06;13.40;99.90
3942;DHT22;1985;48.592;8.850;2022-09-20T20:35:32;13.40;99.90
3942;DHT22;1985;48.592;8.850;2022-09-20T20:37:58;13.40;99.90
3942;DHT22;1985;48.592;8.850;2022-09-20T20:40:24;13.40;99.90
3942;DHT22;1985;48.592;8.850;2022-09-20T20:42:55;13.40;99.90
3942;DHT22;1985;48.592;8.850;2022-09-20T20:45:27;13.40;99.90
3942;DHT22;1985;48.592;8.850;2022-09-20T20:47:56;13.30;99.90
3942;DHT22;1985;48.592;8.850;2022-09-20T20:50:26;13.30;99.90
3942;DHT22;1985;48.592;8.850;2022-09-20T20:52:53;13.30;99.90
3942;DHT22;1985;48.592;8.850;2022-09-20T20:55:20;13.30;99.90
3942;DHT22;1985;48.592;8.850;2022-09-20T20:57:54;13.30;99.90
3942;DHT22;1985;48.592;8.850;2022-09-20T21:00:23;13.30;99.90
3942;DHT22;1985;48.592;8.850;2022-09-20T21:02:57;13.30;99.90
3942;DHT22;1985;48.592;8.850;2022-09-20T21:05:25;13.20;99.90
3942;DHT22;1985;48.592;8.850;2022-09-20T21:07:51;13.20;99.90
3942;DHT22;1985;48.592;8.850;2022-09-20T21:10:17;13.20;99.90
3942;DHT22;1985;48.592;8.850;2022-09-20T21:12:43;13.20;99.90
3942;DHT22;1985;48.592;8.850;2022-09-20T21:15:09;13.20;99.90
3942;DHT22;1985;48.592;8.850;2022-09-20T21:17:34;13.20;99.90
3942;DHT22;1985;48.592;8.850;2022-09-20T21:20:00;13.20;99.90
3942;DHT22;1985;48.592;8.850;2022-09-20T21:22:25;13.20;99.90
3942;DHT22;1985;48.592;8.850;2022-09-20T21:24:51;13.20;99.90
3942;DHT22;1985;48.592;8.850;2022-09-20T21:27:17;13.10;99.90
3942;DHT22;1985;48.592;8.850;2022-09-20T21:29:45;13.10;99.90
3942;DHT22;1985;48.592;8.850;2022-09-20T21:32:10;13.00;99.90
3942;DHT22;1985;48.592;8.850;2022-09-20T21:34:37;12.90;99.90
3942;DHT22;1985;48.592;8.850;2022-09-20T21:37:03;12.90;99.90
3942;DHT22;1985;48.592;8.850;2022-09-20T21:39:28;12.90;99.90
3942;DHT22;1985;48.592;8.850;2022-09-20T21:41:54;12.90;99.90
3942;DHT22;1985;48.592;8.850;2022-09-20T21:44:20;12.90;99.90
3942;DHT22;1985;48.592;8.850;2022-09-20T21:46:46;12.90;99.90
3942;DHT22;1985;48.592;8.850;2022-09-20T21:49:12;12.90;99.90
3942;DHT22;1985;48.592;8.850;2022-09-20T21:51:39;12.80;99.90
3942;DHT22;1985;48.592;8.850;2022-09-20T21:54:06;12.70;99.90
3942;DHT22;1985;48.592;8.850;2022-09-20T21:56:34;12.70;99.90
3942;DHT22;1985;48.592;8.850;2022-09-20T21:59:00;12.70;99.90
3942;DHT22;1985;48.592;8.850;2022-09-20T22:01:29;12.70;99.90
3942;DHT22;1985;48.592;8.850;2022-09-20T22:03:59;12.60;99.90
3942;DHT22;1985;48.592;8.850;2022-09-20T22:06:39;12.60;99.90
3942;DHT22;1985;48.592;8.850;2022-09-20T22:09:08;12.60;99.90
3942;DHT22;1985;48.592;8.850;2022-09-20T22:11:37;12.50;99.90
3942;DHT22;1985;48.592;8.850;2022-09-20T22:14:07;12.50;99.90
3942;DHT22;1985;48.592;8.850;2022-09-20T22:16:35;12.50;99.90
3942;DHT22;1985;48.592;8.850;2022-09-20T22:19:03;12.40;99.90
3942;DHT22;1985;48.592;8.850;2022-09-20T22:21:31;12.30;99.90
3942;DHT22;1985;48.592;8.850;2022-09-20T22:24:00;12.20;99.90
3942;DHT22;1985;48.592;8.850;2022-09-20T22:26:29;12.10;99.90
3942;DHT22;1985;48.592;8.850;2022-09-20T22:28:56;12.10;99.90
3942;DHT22;1985;48.592;8.850;2022-09-20T22:31:25;12.10;99.90
3942;DHT22;1985;48.592;8.850;2022-09-20T22:33:53;12.10;99.90
3942;DHT22;1985;48.592;8.850;2022-09-20T22:36:22;12.10;99.90
3942;DHT22;1985;48.592;8.850;2022-09-20T22:38:48;12.00;99.90
3942;DHT22;1985;48.592;8.850;2022-09-20T22:41:16;12.00;99.90
3942;DHT22;1985;48.592;8.850;2022-09-20T22:43:42;11.90;99.90
3942;DHT22;1985;48.592;8.850;2022-09-20T22:46:15;11.80;99.90
3942;DHT22;1985;48.592;8.850;2022-09-20T22:48:41;11.80;99.90
3942;DHT22;1985;48.592;8.850;2022-09-20T22:51:09;11.80;99.90
3942;DHT22;1985;48.592;8.850;2022-09-20T22:53:35;11.80;99.90
3942;DHT22;1985;48.592;8.850;2022-09-20T22:58:42;11.70;99.90